CYAZ/YAZ METAR and TAF weather

Enter ICAO airport designator
Station Type Date Time Source
CYAZ METAR 2021/07/27 22:00 UTC NOAA

CYAZ 272200Z 28011KT 15SM SKC 21/13 A3009 RMK SLP190 DENSITY ALT 600FT


Station Type Date Time Source
CYAZ Decoded METAR 2021/07/27 22:00 UTC NOAA

Tofino Airport, Canada (CYAZ) 49-05N 125-46W
Jul 27, 2021 - 06:00 PM EDT / 2021.07.27 2200 UTC
Wind: from the W (280 degrees) at 13 MPH (11 KT):0
Visibility: 15 mile(s):0
Sky conditions: clear
Temperature: 69 F (21 C)
Dew Point: 55 F (13 C)
Relative Humidity: 60%
Pressure (altimeter): 30.09 in. Hg (1018 hPa)
ob: CYAZ 272200Z 28011KT 15SM SKC 21/13 A3009 RMK SLP190 DENSITY ALT 600FT
cycle: 22

Station Type Date Time Source
CYAZ TAF 2021/07/27 19:30 UTC NOAA

TAF
AMD TAF
AMD CYAZ 271929Z 2719/2801 18005KT P6SM FEW002
TEMPO 2719/2721 1/2SM FG VV002
FM272100 27010KT P6SM FEW010
RMK NXT FCST WILL BE ISSUED AT 281445Z

Example: see airport list